BAW153 EGLL-LSZH
Flight info
| Callsign | BAW153 |
|---|---|
| Flight time | N/A |
| Altitude | 29000 |
| Route | DET L6 DVR UL9 KONAN DCT KOK DCT SISGA DCT RITAX DCT KRH M150 LAMGO/N0440F270 T721 SUL/N0427F250 T721 RILAX |
| Aircraft | A320/M-SDE3FGHIRWY/LB1 |
Departure
| Time | N/A |
|---|---|
| Airport | London Heathrow Airport (EGLL) |
Arrival
| Time | 2026-05-04 19:45 |
|---|---|
| Airport | Zürich Airport (LSZH) |
| Time | Latitude | Longitude | Altitude | Speed | Heading |
|---|---|---|---|---|---|
| 2026-05-04 19:17 | 49.58079 | 7.11565 | 35008 ft | 448 kts | 126° |
| 2026-05-04 19:17 | 49.56449 | 7.15751 | 35008 ft | 448 kts | 126° |
| 2026-05-04 19:18 | 49.53267 | 7.23906 | 34983 ft | 448 kts | 126° |
| 2026-05-04 19:18 | 49.50052 | 7.32116 | 34986 ft | 448 kts | 126° |
| 2026-05-04 19:19 | 49.46825 | 7.40331 | 34995 ft | 448 kts | 126° |
| 2026-05-04 19:19 | 49.44118 | 7.47198 | 34996 ft | 448 kts | 126° |
| 2026-05-04 19:20 | 49.40585 | 7.54990 | 34973 ft | 437 kts | 142° |
| 2026-05-04 19:20 | 49.38190 | 7.57749 | 34979 ft | 427 kts | 156° |
| 2026-05-04 19:20 | 49.35495 | 7.59692 | 34956 ft | 431 kts | 160° |
| 2026-05-04 19:21 | 49.29925 | 7.63412 | 34974 ft | 440 kts | 161° |
| 2026-05-04 19:21 | 49.24303 | 7.67131 | 34977 ft | 440 kts | 160° |
| 2026-05-04 19:22 | 49.18729 | 7.70838 | 34989 ft | 440 kts | 160° |
| 2026-05-04 19:22 | 49.13118 | 7.74573 | 34991 ft | 440 kts | 160° |
| 2026-05-04 19:23 | 49.07505 | 7.78291 | 34991 ft | 440 kts | 160° |
| 2026-05-04 19:23 | 49.01890 | 7.82003 | 34983 ft | 440 kts | 160° |
| 2026-05-04 19:24 | 48.96268 | 7.85710 | 34985 ft | 440 kts | 160° |
| 2026-05-04 19:24 | 48.90653 | 7.89395 | 34984 ft | 440 kts | 160° |
| 2026-05-04 19:25 | 48.85027 | 7.93080 | 34956 ft | 440 kts | 160° |
| 2026-05-04 19:25 | 48.79401 | 7.96760 | 34949 ft | 441 kts | 160° |
| 2026-05-04 19:26 | 48.73762 | 8.00439 | 34954 ft | 442 kts | 160° |
| 2026-05-04 19:26 | 48.68110 | 8.04114 | 34960 ft | 442 kts | 160° |
| 2026-05-04 19:27 | 48.62476 | 8.07778 | 34981 ft | 435 kts | 160° |
| 2026-05-04 19:27 | 48.56960 | 8.11361 | 34986 ft | 430 kts | 161° |
| 2026-05-04 19:28 | 48.51469 | 8.14906 | 34989 ft | 429 kts | 161° |
| 2026-05-04 19:28 | 48.45974 | 8.18441 | 34937 ft | 430 kts | 161° |
| 2026-05-04 19:28 | 48.43228 | 8.20209 | 34691 ft | 429 kts | 161° |
| 2026-05-04 19:29 | 48.40485 | 8.21977 | 34391 ft | 428 kts | 161° |
| 2026-05-04 19:29 | 48.37736 | 8.23744 | 33579 ft | 431 kts | 161° |
| 2026-05-04 19:29 | 48.34966 | 8.25518 | 32705 ft | 434 kts | 161° |
| 2026-05-04 19:29 | 48.32183 | 8.27296 | 31879 ft | 436 kts | 161° |
| 2026-05-04 19:30 | 48.29381 | 8.29083 | 31017 ft | 438 kts | 160° |
| 2026-05-04 19:30 | 48.26568 | 8.30875 | 30088 ft | 441 kts | 160° |
| 2026-05-04 19:30 | 48.23730 | 8.32683 | 29034 ft | 444 kts | 160° |
| 2026-05-04 19:30 | 48.20912 | 8.34477 | 28054 ft | 445 kts | 160° |
| 2026-05-04 19:31 | 48.18020 | 8.36313 | 27004 ft | 447 kts | 160° |
| 2026-05-04 19:31 | 48.15191 | 8.38106 | 26315 ft | 443 kts | 160° |
| 2026-05-04 19:31 | 48.12334 | 8.39924 | 25648 ft | 438 kts | 160° |
| 2026-05-04 19:31 | 48.09586 | 8.41676 | 24971 ft | 434 kts | 160° |
| 2026-05-04 19:32 | 48.06820 | 8.43438 | 24290 ft | 431 kts | 160° |
| 2026-05-04 19:32 | 48.04069 | 8.45184 | 23610 ft | 428 kts | 160° |
| 2026-05-04 19:32 | 48.01338 | 8.46912 | 22871 ft | 425 kts | 160° |
| 2026-05-04 19:32 | 47.98635 | 8.48619 | 22209 ft | 419 kts | 160° |
| 2026-05-04 19:33 | 47.95962 | 8.50302 | 21526 ft | 414 kts | 160° |
| 2026-05-04 19:33 | 47.93351 | 8.52098 | 20876 ft | 412 kts | 154° |
| 2026-05-04 19:33 | 47.90844 | 8.54104 | 20226 ft | 408 kts | 154° |
| 2026-05-04 19:33 | 47.88347 | 8.56095 | 19593 ft | 405 kts | 155° |
| 2026-05-04 19:34 | 47.85868 | 8.58067 | 18977 ft | 403 kts | 155° |
| 2026-05-04 19:34 | 47.83406 | 8.60028 | 18388 ft | 400 kts | 154° |
| 2026-05-04 19:34 | 47.80957 | 8.61979 | 17742 ft | 398 kts | 154° |
| 2026-05-04 19:34 | 47.78531 | 8.63912 | 17179 ft | 393 kts | 154° |
| 2026-05-04 19:35 | 47.76137 | 8.65819 | 16606 ft | 388 kts | 154° |
| 2026-05-04 19:35 | 47.73767 | 8.67701 | 16047 ft | 384 kts | 154° |
| 2026-05-04 19:35 | 47.71418 | 8.69560 | 15473 ft | 381 kts | 154° |
| 2026-05-04 19:35 | 47.69087 | 8.71402 | 14896 ft | 378 kts | 154° |
| 2026-05-04 19:36 | 47.66774 | 8.73228 | 14303 ft | 375 kts | 155° |
| 2026-05-04 19:36 | 47.64477 | 8.75038 | 13692 ft | 373 kts | 155° |
| 2026-05-04 19:36 | 47.62197 | 8.76832 | 13046 ft | 370 kts | 155° |
| 2026-05-04 19:36 | 47.59947 | 8.78647 | 12426 ft | 367 kts | 150° |
| 2026-05-04 19:37 | 47.57951 | 8.80998 | 11814 ft | 368 kts | 137° |
| 2026-05-04 19:37 | 47.56389 | 8.83986 | 11188 ft | 369 kts | 123° |
| 2026-05-04 19:37 | 47.55381 | 8.87403 | 10809 ft | 363 kts | 108° |
| 2026-05-04 19:37 | 47.54933 | 8.91005 | 10679 ft | 350 kts | 98° |
| 2026-05-04 19:38 | 47.54683 | 8.94514 | 10559 ft | 336 kts | 98° |
| 2026-05-04 19:38 | 47.54430 | 8.97936 | 10437 ft | 324 kts | 99° |
| 2026-05-04 19:38 | 47.54048 | 9.01147 | 10312 ft | 309 kts | 113° |
| 2026-05-04 19:38 | 47.52973 | 9.03711 | 10193 ft | 292 kts | 138° |
| 2026-05-04 19:39 | 47.51336 | 9.05325 | 10016 ft | 278 kts | 162° |
| 2026-05-04 19:39 | 47.49464 | 9.05831 | 9616 ft | 276 kts | 183° |
| 2026-05-04 19:39 | 47.47543 | 9.05542 | 9144 ft | 279 kts | 187° |
| 2026-05-04 19:39 | 47.45639 | 9.05084 | 8689 ft | 275 kts | 199° |
| 2026-05-04 19:40 | 47.44012 | 9.03707 | 8170 ft | 270 kts | 223° |
| 2026-05-04 19:40 | 47.42943 | 9.01432 | 7785 ft | 273 kts | 247° |
| 2026-05-04 19:40 | 47.42617 | 8.98682 | 7435 ft | 276 kts | 271° |
| 2026-05-04 19:40 | 47.42804 | 8.95857 | 7051 ft | 278 kts | 275° |
| 2026-05-04 19:41 | 47.43034 | 8.93000 | 6656 ft | 281 kts | 275° |
| 2026-05-04 19:41 | 47.43251 | 8.90152 | 6248 ft | 275 kts | 275° |
| 2026-05-04 19:41 | 47.43455 | 8.87392 | 5852 ft | 266 kts | 275° |
| 2026-05-04 19:41 | 47.43652 | 8.84715 | 5450 ft | 259 kts | 275° |
| 2026-05-04 19:42 | 47.43843 | 8.82113 | 5095 ft | 251 kts | 275° |
| 2026-05-04 19:42 | 47.44029 | 8.79587 | 4729 ft | 243 kts | 276° |
| 2026-05-04 19:42 | 47.44208 | 8.77145 | 4372 ft | 235 kts | 276° |
| 2026-05-04 19:42 | 47.44380 | 8.74791 | 4027 ft | 227 kts | 276° |
| 2026-05-04 19:43 | 47.44546 | 8.72503 | 3712 ft | 220 kts | 276° |
| 2026-05-04 19:43 | 47.44706 | 8.70296 | 3399 ft | 213 kts | 276° |
| 2026-05-04 19:43 | 47.44858 | 8.68196 | 3086 ft | 197 kts | 276° |
| 2026-05-04 19:43 | 47.44996 | 8.66294 | 2832 ft | 180 kts | 276° |
| 2026-05-04 19:44 | 47.45121 | 8.64557 | 2591 ft | 160 kts | 275° |
| 2026-05-04 19:44 | 47.45235 | 8.62978 | 2334 ft | 150 kts | 275° |
| 2026-05-04 19:44 | 47.45345 | 8.61446 | 2106 ft | 148 kts | 275° |
| 2026-05-04 19:44 | 47.45454 | 8.59920 | 1880 ft | 147 kts | 274° |
| 2026-05-04 19:45 | 47.45561 | 8.58422 | 1673 ft | 147 kts | 275° |
| 2026-05-04 19:45 | 47.45665 | 8.56949 | 1452 ft | 146 kts | 275° |
| 2026-05-04 19:45 | 47.45754 | 8.55663 | 1405 ft | 93 kts | 276° |
| 2026-05-04 19:45 | 47.45800 | 8.55250 | 1407 ft | 19 kts | 310° |
| 2026-05-04 19:46 | 47.45898 | 8.55170 | 1402 ft | 15 kts | 335° |
| 2026-05-04 19:46 | 47.45999 | 8.55099 | 1395 ft | 15 kts | 336° |
| 2026-05-04 19:46 | 47.46042 | 8.55078 | 1398 ft | 5 kts | 12° |
| 2026-05-04 19:46 | 47.46050 | 8.55109 | 1395 ft | 3 kts | 73° |
| 2026-05-04 19:47 | 47.46059 | 8.55141 | 1398 ft | 3 kts | 65° |
| 2026-05-04 19:47 | 47.46069 | 8.55171 | 1400 ft | 2 kts | 65° |
| 2026-05-04 19:47 | 47.46070 | 8.55175 | 1402 ft | 0 kts | 65° |